createdAt,value
2018-07-15T00:00:35.589Z,15.70
2018-07-15T00:03:04.977Z,15.60
2018-07-15T00:05:33.448Z,15.60
2018-07-15T00:08:01.980Z,15.50
2018-07-15T00:10:30.952Z,15.50
2018-07-15T00:12:59.350Z,15.50
2018-07-15T00:15:27.815Z,15.50
2018-07-15T00:20:24.490Z,15.40
2018-07-15T00:22:52.927Z,15.30
2018-07-15T00:25:21.353Z,15.20
2018-07-15T00:27:49.773Z,15.10
2018-07-15T00:30:18.219Z,15.00
2018-07-15T00:32:46.673Z,15.00
2018-07-15T00:35:15.146Z,14.90
2018-07-15T00:37:43.661Z,14.90
2018-07-15T00:40:12.192Z,14.90
2018-07-15T00:42:40.630Z,14.90
2018-07-15T00:47:37.356Z,14.70
2018-07-15T00:50:05.920Z,14.60
2018-07-15T00:52:34.348Z,14.50
2018-07-15T00:55:02.850Z,14.50
2018-07-15T00:57:31.252Z,14.50
2018-07-15T00:59:59.856Z,14.50
2018-07-15T01:02:28.304Z,14.40
2018-07-15T01:04:56.731Z,14.40
2018-07-15T01:07:25.193Z,14.40
2018-07-15T01:09:53.632Z,14.30
2018-07-15T01:12:22.068Z,14.30
2018-07-15T01:14:50.537Z,14.30
2018-07-15T01:17:18.968Z,14.20
2018-07-15T01:19:47.430Z,14.20
2018-07-15T01:22:15.856Z,14.30
2018-07-15T01:24:44.285Z,14.30
2018-07-15T01:27:12.903Z,14.30
2018-07-15T01:29:41.381Z,14.30
2018-07-15T01:34:38.110Z,14.20
2018-07-15T01:37:06.872Z,14.30
2018-07-15T01:39:35.369Z,14.30
2018-07-15T01:42:03.787Z,14.20
2018-07-15T01:44:32.378Z,14.30
2018-07-15T01:47:00.840Z,14.20
2018-07-15T01:49:29.276Z,14.10
2018-07-15T01:51:57.708Z,14.00
2018-07-15T01:54:26.228Z,14.00
2018-07-15T01:56:54.740Z,13.90
2018-07-15T01:59:23.155Z,13.90
2018-07-15T02:01:51.677Z,13.80
2018-07-15T02:04:20.693Z,13.80
2018-07-15T02:06:49.150Z,13.70
2018-07-15T02:09:17.606Z,13.70
2018-07-15T02:11:46.051Z,13.60
2018-07-15T02:14:14.569Z,13.60
2018-07-15T02:16:43.005Z,13.60
2018-07-15T02:19:11.523Z,13.50
2018-07-15T02:21:39.934Z,13.50
2018-07-15T02:24:08.352Z,13.40
2018-07-15T02:26:36.808Z,13.40
2018-07-15T02:29:05.552Z,13.40
2018-07-15T02:31:34.111Z,13.40
2018-07-15T02:34:02.602Z,13.30
2018-07-15T02:36:31.144Z,13.30
2018-07-15T02:38:59.594Z,13.30
2018-07-15T02:43:56.156Z,13.30
2018-07-15T02:46:24.635Z,13.30
2018-07-15T02:48:53.193Z,13.20
2018-07-15T02:51:21.621Z,13.20
2018-07-15T02:53:50.119Z,13.40
2018-07-15T02:56:18.548Z,13.60
2018-07-15T02:58:47.078Z,13.70
2018-07-15T03:01:15.529Z,13.80
2018-07-15T03:03:43.997Z,13.90
2018-07-15T03:06:12.452Z,13.90
2018-07-15T03:08:40.919Z,13.80
2018-07-15T03:11:09.396Z,13.80
2018-07-15T03:13:37.870Z,13.90
2018-07-15T03:16:06.316Z,13.90
2018-07-15T03:18:34.771Z,13.90
2018-07-15T03:21:03.475Z,13.90
2018-07-15T03:23:31.889Z,13.90
2018-07-15T03:26:00.444Z,13.80
2018-07-15T03:28:28.849Z,13.80
2018-07-15T03:30:57.284Z,13.60
2018-07-15T03:33:25.749Z,13.50
2018-07-15T03:35:54.252Z,13.40
2018-07-15T03:38:22.728Z,13.30
2018-07-15T03:40:51.223Z,13.30
2018-07-15T03:43:19.667Z,13.40
2018-07-15T03:45:48.169Z,13.40
2018-07-15T03:48:16.802Z,13.40
2018-07-15T03:50:45.286Z,13.40
2018-07-15T03:53:13.709Z,13.30
2018-07-15T03:55:42.124Z,13.20
2018-07-15T03:58:10.945Z,13.20
2018-07-15T04:00:39.539Z,13.20
2018-07-15T04:03:07.975Z,13.20
2018-07-15T04:05:36.428Z,13.30
2018-07-15T04:08:04.885Z,13.60
2018-07-15T04:10:33.309Z,13.80
2018-07-15T04:13:01.850Z,13.90
2018-07-15T04:15:30.397Z,14.00
2018-07-15T04:18:06.285Z,14.10
2018-07-15T04:20:36.179Z,14.10
2018-07-15T04:23:05.341Z,14.20
2018-07-15T04:25:34.591Z,14.30
2018-07-15T04:28:03.787Z,14.30
2018-07-15T04:30:32.342Z,14.30
2018-07-15T04:33:00.876Z,14.30
2018-07-15T04:35:29.696Z,14.30
2018-07-15T04:37:58.195Z,14.30
2018-07-15T04:40:26.643Z,14.40
2018-07-15T04:42:55.108Z,14.50
2018-07-15T04:45:23.581Z,14.50
2018-07-15T04:47:52.021Z,14.60
2018-07-15T04:50:20.491Z,14.70
2018-07-15T04:52:49.100Z,14.80
2018-07-15T04:55:17.590Z,14.90
2018-07-15T04:57:46.006Z,15.00
2018-07-15T05:00:14.504Z,15.20
2018-07-15T05:02:42.993Z,15.40
2018-07-15T05:05:11.468Z,15.40
2018-07-15T05:07:40.017Z,15.50
2018-07-15T05:10:08.496Z,15.60
2018-07-15T05:12:36.963Z,15.70
2018-07-15T05:15:05.482Z,16.00
2018-07-15T05:17:34.199Z,16.50
2018-07-15T05:20:02.692Z,17.00
2018-07-15T05:22:31.100Z,16.90
2018-07-15T05:27:28.085Z,19.80
2018-07-15T05:29:56.545Z,20.50
2018-07-15T05:32:25.021Z,21.60
2018-07-15T05:34:53.471Z,22.60
2018-07-15T05:37:21.924Z,23.50
2018-07-15T05:39:50.419Z,24.10
2018-07-15T05:42:21.208Z,24.70
2018-07-15T05:44:49.829Z,24.90
2018-07-15T05:47:18.294Z,25.60
2018-07-15T05:49:46.741Z,27.10
2018-07-15T05:52:15.245Z,27.40
2018-07-15T05:54:43.868Z,27.70
2018-07-15T05:57:12.327Z,28.50
2018-07-15T05:59:40.862Z,27.60
2018-07-15T06:02:09.324Z,28.00
2018-07-15T06:04:37.788Z,27.50
2018-07-15T06:07:06.243Z,27.80
2018-07-15T06:09:35.181Z,28.70
2018-07-15T06:12:03.761Z,29.50
2018-07-15T06:14:32.265Z,28.60
2018-07-15T06:17:01.546Z,29.00
2018-07-15T06:19:30.090Z,28.50
2018-07-15T06:21:58.540Z,28.60
2018-07-15T06:24:27.029Z,29.50
2018-07-15T06:26:55.445Z,28.50
2018-07-15T06:29:24.217Z,28.30
2018-07-15T06:31:52.772Z,27.90
2018-07-15T06:34:21.601Z,27.70
2018-07-15T06:36:50.153Z,28.90
2018-07-15T06:39:18.674Z,27.80
2018-07-15T06:41:48.220Z,28.80
2018-07-15T06:46:45.007Z,29.90
2018-07-15T06:49:13.572Z,30.40
2018-07-15T06:51:42.625Z,30.50
2018-07-15T06:54:11.104Z,30.30
2018-07-15T06:56:39.601Z,30.30
2018-07-15T06:59:08.043Z,30.40
2018-07-15T07:01:36.528Z,30.60
2018-07-15T07:04:05.250Z,30.40
2018-07-15T07:06:33.697Z,29.50
2018-07-15T07:09:02.606Z,31.60
2018-07-15T07:11:31.019Z,31.70
2018-07-15T07:13:59.595Z,32.90
2018-07-15T07:16:28.108Z,32.30
2018-07-15T07:18:56.722Z,32.30
2018-07-15T07:21:25.280Z,31.90
2018-07-15T07:23:53.752Z,31.60
2018-07-15T07:26:22.170Z,32.60
2018-07-15T07:28:50.633Z,32.30
2018-07-15T07:31:19.109Z,31.60
2018-07-15T07:33:47.589Z,32.00
2018-07-15T07:36:16.339Z,31.30
2018-07-15T07:38:45.187Z,33.00
2018-07-15T07:41:13.608Z,32.80
2018-07-15T07:43:42.181Z,33.10
2018-07-15T07:46:11.356Z,33.50
2018-07-15T07:48:39.812Z,33.80
2018-07-15T07:51:08.247Z,33.10
2018-07-15T07:53:36.705Z,32.90
2018-07-15T07:56:05.208Z,33.00
2018-07-15T07:58:33.677Z,34.30
2018-07-15T08:01:02.287Z,34.40
2018-07-15T08:03:30.833Z,34.50
2018-07-15T08:05:59.348Z,34.30
2018-07-15T08:08:27.825Z,34.20
2018-07-15T08:10:56.260Z,35.00
2018-07-15T08:13:24.690Z,33.80
2018-07-15T08:15:53.220Z,33.10
2018-07-15T08:18:21.779Z,33.40
2018-07-15T08:20:50.240Z,33.80
2018-07-15T08:23:18.736Z,33.60
2018-07-15T08:25:47.276Z,34.50
2018-07-15T08:28:15.923Z,33.40
2018-07-15T08:30:55.682Z,33.90
2018-07-15T08:33:24.260Z,34.30
2018-07-15T08:35:52.672Z,33.80
2018-07-15T08:38:21.124Z,33.90
2018-07-15T08:40:49.690Z,34.40
2018-07-15T08:43:18.100Z,35.00
2018-07-15T08:45:46.552Z,34.70
2018-07-15T08:48:15.131Z,34.30
2018-07-15T08:50:43.582Z,34.50
2018-07-15T08:53:12.164Z,34.70
2018-07-15T08:55:40.756Z,34.30
2018-07-15T08:58:09.245Z,33.50
2018-07-15T09:04:06.039Z,33.30
2018-07-15T09:06:34.542Z,34.30
2018-07-15T09:09:03.273Z,34.70
2018-07-15T09:11:31.744Z,35.60
2018-07-15T09:14:00.139Z,35.40
2018-07-15T09:16:28.600Z,34.90
2018-07-15T09:18:57.076Z,34.60
2018-07-15T09:21:25.532Z,35.20
2018-07-15T09:23:53.981Z,34.40
2018-07-15T09:26:22.419Z,35.20
2018-07-15T09:28:50.904Z,35.40
2018-07-15T09:31:19.631Z,35.00
2018-07-15T09:33:48.113Z,34.80
2018-07-15T09:36:16.553Z,34.60
2018-07-15T09:38:44.974Z,34.80
2018-07-15T09:41:13.420Z,35.10
2018-07-15T09:43:41.895Z,36.60
2018-07-15T09:46:10.373Z,36.50
2018-07-15T09:48:38.930Z,36.20
2018-07-15T09:51:07.452Z,36.10
2018-07-15T09:53:35.885Z,35.30
2018-07-15T09:56:04.973Z,35.40
2018-07-15T09:58:33.593Z,36.20
2018-07-15T10:01:02.056Z,36.90
2018-07-15T10:03:30.551Z,37.00
2018-07-15T10:08:27.217Z,35.50
2018-07-15T10:10:55.669Z,36.40
2018-07-15T10:13:24.158Z,35.50
2018-07-15T10:15:52.636Z,35.40
2018-07-15T10:18:21.071Z,34.50
2018-07-15T10:20:49.560Z,35.50
2018-07-15T10:23:18.002Z,35.90
2018-07-15T10:25:46.566Z,36.10
2018-07-15T10:28:14.985Z,35.60
2018-07-15T10:30:43.554Z,36.20
2018-07-15T10:33:12.033Z,35.80
2018-07-15T10:35:40.425Z,36.20
2018-07-15T10:38:08.844Z,35.40
2018-07-15T10:40:37.364Z,35.70
2018-07-15T10:43:05.802Z,36.00
2018-07-15T10:45:34.246Z,35.40
2018-07-15T10:48:02.883Z,35.50
2018-07-15T10:50:31.337Z,35.20
2018-07-15T10:52:59.932Z,34.20
2018-07-15T10:55:28.228Z,34.00
2018-07-15T10:57:56.700Z,33.70
2018-07-15T11:00:25.496Z,34.70
2018-07-15T11:02:53.953Z,34.30
2018-07-15T11:05:22.444Z,35.20
2018-07-15T11:07:50.881Z,33.90
2018-07-15T11:10:19.368Z,34.20
2018-07-15T11:12:47.971Z,33.00
2018-07-15T11:15:16.669Z,32.10
2018-07-15T11:17:45.229Z,31.60
2018-07-15T11:20:13.690Z,32.40
2018-07-15T11:22:42.157Z,32.00
2018-07-15T11:25:10.790Z,32.30
2018-07-15T11:27:39.468Z,32.30
2018-07-15T11:30:08.152Z,32.20
2018-07-15T11:32:36.581Z,32.20
2018-07-15T11:35:05.126Z,32.00
2018-07-15T11:37:33.835Z,31.70
2018-07-15T11:40:02.264Z,32.00
2018-07-15T11:42:30.768Z,32.00
2018-07-15T11:44:59.245Z,32.00
2018-07-15T11:47:27.724Z,31.40
2018-07-15T11:49:56.173Z,31.50
2018-07-15T11:52:24.615Z,31.50
2018-07-15T11:54:53.104Z,31.70
2018-07-15T11:57:21.558Z,31.70
2018-07-15T11:59:49.947Z,31.50
2018-07-15T12:02:18.385Z,31.60
2018-07-15T12:04:46.787Z,31.60
2018-07-15T12:07:15.200Z,31.40
2018-07-15T12:09:43.927Z,31.10
2018-07-15T12:12:12.406Z,31.00
2018-07-15T12:14:40.814Z,30.40
2018-07-15T12:17:09.249Z,31.20
2018-07-15T12:19:37.712Z,30.60
2018-07-15T12:22:06.206Z,30.00
2018-07-15T12:24:34.736Z,30.20
2018-07-15T12:27:03.229Z,30.40
2018-07-15T12:29:31.633Z,30.10
2018-07-15T12:32:00.045Z,30.30
2018-07-15T12:34:28.521Z,30.70
2018-07-15T12:36:57.090Z,30.00
2018-07-15T12:39:25.557Z,30.30
2018-07-15T12:41:53.979Z,29.90
2018-07-15T12:44:22.454Z,30.50
2018-07-15T12:46:50.885Z,30.70
2018-07-15T12:49:19.340Z,30.70
2018-07-15T12:51:47.789Z,31.30
2018-07-15T12:54:16.180Z,30.80
2018-07-15T12:56:44.618Z,30.30
2018-07-15T12:59:13.093Z,30.30
2018-07-15T13:01:41.526Z,30.20
2018-07-15T13:04:10.045Z,30.10
2018-07-15T13:06:38.488Z,29.90
2018-07-15T13:09:07.223Z,29.30
2018-07-15T13:11:35.728Z,29.70
2018-07-15T13:14:04.212Z,29.40
2018-07-15T13:16:33.038Z,29.90
2018-07-15T13:19:01.484Z,30.00
2018-07-15T13:21:29.903Z,30.00
2018-07-15T13:23:58.328Z,30.20
2018-07-15T13:26:26.838Z,29.90
2018-07-15T13:28:55.307Z,30.30
2018-07-15T13:31:23.795Z,30.10
2018-07-15T13:33:52.213Z,30.20
2018-07-15T13:36:20.670Z,30.00
2018-07-15T13:38:49.093Z,30.20
2018-07-15T13:41:17.518Z,29.70
2018-07-15T13:43:45.936Z,29.50
2018-07-15T13:46:14.459Z,29.70
2018-07-15T13:48:42.919Z,29.50
2018-07-15T13:51:11.346Z,29.30
2018-07-15T13:53:39.804Z,29.60
2018-07-15T13:56:08.298Z,29.90
2018-07-15T13:58:36.848Z,30.00
2018-07-15T14:01:05.359Z,30.00
2018-07-15T14:03:33.803Z,30.00
2018-07-15T14:06:02.326Z,30.10
2018-07-15T14:08:30.739Z,29.60
2018-07-15T14:10:59.181Z,29.60
2018-07-15T14:13:27.733Z,29.50
2018-07-15T14:15:56.205Z,29.70
2018-07-15T14:18:24.613Z,29.70
2018-07-15T14:20:53.068Z,29.70
2018-07-15T14:23:21.520Z,29.80
2018-07-15T14:25:49.961Z,29.70
2018-07-15T14:28:18.388Z,29.50
2018-07-15T14:30:46.862Z,29.10
2018-07-15T14:33:15.287Z,28.90
2018-07-15T14:35:43.765Z,29.10
2018-07-15T14:38:12.305Z,28.90
2018-07-15T14:40:40.797Z,29.00
2018-07-15T14:43:09.279Z,29.40
2018-07-15T14:45:41.977Z,29.60
2018-07-15T14:48:10.450Z,29.40
2018-07-15T14:50:39.078Z,29.00
2018-07-15T14:53:07.607Z,28.80
2018-07-15T14:55:36.767Z,29.20
2018-07-15T14:58:05.289Z,28.90
2018-07-15T15:00:33.991Z,28.70
2018-07-15T15:03:02.438Z,28.60
2018-07-15T15:05:30.932Z,28.70
2018-07-15T15:07:59.364Z,29.00
2018-07-15T15:10:27.928Z,28.90
2018-07-15T15:12:56.368Z,29.30
2018-07-15T15:15:24.825Z,29.20
2018-07-15T15:17:53.285Z,29.20
2018-07-15T15:20:21.825Z,29.40
2018-07-15T15:22:50.301Z,29.30
2018-07-15T15:25:18.812Z,29.20
2018-07-15T15:27:47.339Z,28.90
2018-07-15T15:30:15.856Z,28.80
2018-07-15T15:32:44.471Z,28.80
2018-07-15T15:35:12.925Z,28.80
2018-07-15T15:37:41.420Z,29.00
2018-07-15T15:40:10.073Z,29.00
2018-07-15T15:42:38.544Z,29.00
2018-07-15T15:45:07.417Z,29.00
2018-07-15T15:47:36.127Z,28.90
2018-07-15T15:50:04.649Z,28.70
2018-07-15T15:52:33.105Z,28.80
2018-07-15T15:55:01.544Z,28.60
2018-07-15T15:57:29.921Z,28.60
2018-07-15T15:59:58.345Z,28.70
2018-07-15T16:02:26.892Z,28.60
2018-07-15T16:04:55.368Z,28.50
2018-07-15T16:07:23.802Z,28.40
2018-07-15T16:09:52.249Z,28.30
2018-07-15T16:12:20.724Z,28.40
2018-07-15T16:14:49.300Z,28.30
2018-07-15T16:17:17.767Z,28.20
2018-07-15T16:19:46.187Z,28.20
2018-07-15T16:22:14.664Z,28.10
2018-07-15T16:24:43.080Z,28.20
2018-07-15T16:27:11.512Z,28.10
2018-07-15T16:32:08.068Z,28.00
2018-07-15T16:34:36.520Z,28.20
2018-07-15T16:37:05.365Z,28.20
2018-07-15T16:39:33.791Z,28.20
2018-07-15T16:42:02.251Z,28.20
2018-07-15T16:44:30.688Z,28.00
2018-07-15T16:46:59.116Z,28.00
2018-07-15T16:49:27.593Z,27.90
2018-07-15T16:51:56.004Z,27.90
2018-07-15T16:54:24.490Z,27.90
2018-07-15T16:56:52.967Z,27.90
2018-07-15T16:59:21.452Z,27.90
2018-07-15T17:01:49.958Z,27.70
2018-07-15T17:04:18.732Z,27.80
2018-07-15T17:06:47.209Z,27.90
2018-07-15T17:09:15.671Z,27.70
2018-07-15T17:11:44.134Z,27.80
2018-07-15T17:14:12.627Z,27.90
2018-07-15T17:16:41.019Z,28.00
2018-07-15T17:19:09.480Z,28.00
2018-07-15T17:21:37.886Z,27.90
2018-07-15T17:24:06.359Z,27.70
2018-07-15T17:26:34.776Z,27.80
2018-07-15T17:29:03.268Z,27.70
2018-07-15T17:31:31.904Z,27.60
2018-07-15T17:34:00.341Z,27.60
2018-07-15T17:36:28.785Z,27.60
2018-07-15T17:38:57.316Z,27.60
2018-07-15T17:41:25.735Z,27.40
2018-07-15T17:43:54.291Z,27.30
2018-07-15T17:46:22.846Z,27.30
2018-07-15T17:48:51.194Z,27.40
2018-07-15T17:51:19.687Z,27.40
2018-07-15T17:53:48.127Z,27.50
2018-07-15T17:56:16.578Z,27.30
2018-07-15T17:58:45.975Z,27.30
2018-07-15T18:01:14.411Z,27.20
2018-07-15T18:03:42.833Z,26.90
2018-07-15T18:06:11.410Z,26.80
2018-07-15T18:08:39.854Z,26.60
2018-07-15T18:11:08.681Z,26.50
2018-07-15T18:13:38.025Z,26.30
2018-07-15T18:16:07.393Z,26.20
2018-07-15T18:18:35.937Z,26.10
2018-07-15T18:21:04.831Z,26.10
2018-07-15T18:23:33.407Z,26.10
2018-07-15T18:26:02.403Z,26.10
2018-07-15T18:28:30.818Z,26.10
2018-07-15T18:30:59.324Z,26.00
2018-07-15T18:33:27.886Z,26.00
2018-07-15T18:35:56.370Z,26.00
2018-07-15T18:38:28.708Z,26.00
2018-07-15T18:40:57.887Z,26.00
2018-07-15T18:43:27.027Z,26.00
2018-07-15T18:45:55.573Z,25.90
2018-07-15T18:48:24.065Z,25.80
2018-07-15T18:50:52.840Z,25.70
2018-07-15T18:53:21.541Z,25.60
2018-07-15T18:55:50.190Z,25.50
2018-07-15T18:58:19.780Z,25.40
2018-07-15T19:00:48.265Z,25.30
2018-07-15T19:03:16.743Z,25.30
2018-07-15T19:05:45.294Z,25.20
2018-07-15T19:08:13.754Z,25.10
2018-07-15T19:10:42.469Z,25.00
2018-07-15T19:13:11.022Z,24.80
2018-07-15T19:15:39.497Z,24.70
2018-07-15T19:18:07.993Z,24.50
2018-07-15T19:20:36.569Z,24.40
2018-07-15T19:23:05.099Z,24.30
2018-07-15T19:25:33.900Z,24.20
2018-07-15T19:28:02.382Z,24.10
2018-07-15T19:30:31.012Z,24.00
2018-07-15T19:32:59.523Z,23.90
2018-07-15T19:35:28.113Z,23.80
2018-07-15T19:37:56.581Z,23.70
2018-07-15T19:40:25.292Z,23.60
2018-07-15T19:42:54.401Z,23.60
2018-07-15T19:45:23.260Z,23.50
2018-07-15T19:47:51.947Z,23.30
2018-07-15T19:50:20.734Z,23.20
2018-07-15T19:52:49.857Z,23.10
2018-07-15T19:55:18.322Z,23.10
2018-07-15T19:57:47.530Z,22.90
2018-07-15T20:00:16.052Z,22.80
2018-07-15T20:02:48.923Z,22.60
2018-07-15T20:05:17.458Z,22.50
2018-07-15T20:07:45.933Z,22.50
2018-07-15T20:10:14.425Z,22.40
2018-07-15T20:12:42.889Z,22.40
2018-07-15T20:15:11.305Z,22.20
2018-07-15T20:17:39.742Z,22.30
2018-07-15T20:20:10.169Z,22.30
2018-07-15T20:22:38.685Z,22.30
2018-07-15T20:25:07.735Z,22.30
2018-07-15T20:27:36.234Z,22.20
2018-07-15T20:30:05.030Z,22.10
2018-07-15T20:32:33.780Z,22.00
2018-07-15T20:35:02.555Z,21.90
2018-07-15T20:37:31.184Z,21.90
2018-07-15T20:39:59.604Z,21.80
2018-07-15T20:42:28.340Z,21.70
2018-07-15T20:44:56.776Z,21.60
2018-07-15T20:47:25.368Z,21.50
2018-07-15T20:49:53.853Z,21.40
2018-07-15T20:52:22.295Z,21.40
2018-07-15T20:54:50.764Z,21.40
2018-07-15T20:57:19.940Z,21.40
2018-07-15T20:59:48.343Z,21.50
2018-07-15T21:02:16.824Z,21.70
2018-07-15T21:04:45.383Z,21.80
2018-07-15T21:07:13.856Z,22.00
2018-07-15T21:09:42.443Z,22.00
2018-07-15T21:12:10.941Z,21.90
2018-07-15T21:14:39.507Z,21.80
2018-07-15T21:17:08.026Z,21.70
2018-07-15T21:19:36.460Z,21.60
2018-07-15T21:22:04.928Z,21.60
2018-07-15T21:24:33.905Z,21.40
2018-07-15T21:27:02.647Z,21.20
2018-07-15T21:29:31.361Z,21.00
2018-07-15T21:31:59.813Z,20.80
2018-07-15T21:34:28.398Z,20.80
2018-07-15T21:36:56.890Z,20.70
2018-07-15T21:39:25.503Z,20.70
2018-07-15T21:41:54.054Z,20.70
2018-07-15T21:44:22.600Z,20.60
2018-07-15T21:46:53.324Z,20.50
2018-07-15T21:49:21.957Z,20.50
2018-07-15T21:51:50.567Z,20.50
2018-07-15T21:54:19.109Z,20.40
2018-07-15T21:56:47.546Z,20.40
2018-07-15T21:59:15.987Z,20.30
2018-07-15T22:01:44.858Z,20.20
2018-07-15T22:04:13.365Z,20.10
2018-07-15T22:06:53.036Z,20.00
2018-07-15T22:09:32.551Z,20.00
2018-07-15T22:25:05.915Z,19.80
2018-07-15T22:27:34.292Z,19.50
2018-07-15T22:30:02.745Z,18.80
2018-07-15T22:34:59.618Z,18.80
2018-07-15T22:37:28.140Z,18.70
2018-07-15T22:39:56.568Z,18.60
2018-07-15T22:44:53.208Z,18.40
2018-07-15T22:47:22.113Z,18.40
2018-07-15T22:49:50.581Z,18.30
2018-07-15T22:52:19.053Z,18.30
2018-07-15T22:54:47.477Z,18.30
2018-07-15T22:57:16.084Z,18.20
2018-07-15T22:59:44.487Z,18.20
2018-07-15T23:02:13.033Z,18.10
2018-07-15T23:05:52.301Z,18.00
2018-07-15T23:08:21.328Z,17.90
2018-07-15T23:10:49.811Z,17.90
2018-07-15T23:13:18.676Z,17.80
2018-07-15T23:15:47.563Z,17.70
2018-07-15T23:18:16.135Z,17.60
2018-07-15T23:20:45.475Z,17.60
2018-07-15T23:23:14.460Z,17.60
2018-07-15T23:25:42.972Z,17.70
2018-07-15T23:28:12.662Z,17.80
2018-07-15T23:30:41.897Z,17.70
2018-07-15T23:33:10.872Z,17.70
2018-07-15T23:35:39.336Z,17.60
2018-07-15T23:38:08.089Z,17.50
2018-07-15T23:40:36.703Z,17.60
2018-07-15T23:43:05.369Z,17.80
2018-07-15T23:45:34.993Z,17.70
2018-07-15T23:48:03.494Z,17.70
2018-07-15T23:50:32.046Z,17.80
2018-07-15T23:53:00.532Z,17.80
2018-07-15T23:55:28.988Z,17.80
2018-07-15T23:57:57.800Z,17.70
